Loop, Texas
Current Conditions -  °F | °C
As of 5:15 PM on Wednesday 22 Oct 2014 (Local Time) from KGNC Reporting Station
Scattered Clouds Scattered Clouds  
Wind Chill: 68°   Ceiling: Unl
Heat Index: 68°   Visibility: 10mi
Dew Point: 59°   Wind: 7mph
Humidity: 72%   Direction: 190°S
Pressure: 30.1"   Gusts: NA
Location:  32.92°N, 102.42°W
Report Text: KGNC 222215Z AUTO 19006KT 10SM SCT060 SCT080 20/15 A3010 RMK AO2 T02020150
Loading
Personal Weather Stations






























Interactive Weather Map
Tropical Storm Tracking
New forecast layout! Learn more

10-Day Weather Forecast

Advertisements
Track Severe Weather on mobile